NKS5A KLAS-KFLL
Flight info
| Callsign | NKS5A |
|---|---|
| Flight time | N/A |
| Altitude | 39000 |
| Route | NIITZ4 SSKEE GUP TXO CIYAL MQP ARDIA LFK ZIROR LEV Y290 DOWRY TEEKY4 |
| Aircraft | A339/H-SADE1E2E3GHIJ3J5M1P2RWXY/LB2D1 |
Departure
| Time | 2026-05-08 07:11 |
|---|---|
| Airport | Harry Reid International Airport (KLAS) |
Arrival
| Time | N/A |
|---|---|
| Airport | Fort Lauderdale Hollywood International Airport (KFLL) |
| Time | Latitude | Longitude | Altitude | Speed | Heading |
|---|---|---|---|---|---|
| 2026-05-08 06:33 | 36.08018 | -115.13610 | 2194 ft | 0 kts | 67° |
| 2026-05-08 06:38 | 36.08134 | -115.13988 | 2194 ft | 0 kts | 142° |
| 2026-05-08 07:01 | 36.08147 | -115.14000 | 2196 ft | 4 kts | 143° |
| 2026-05-08 07:01 | 36.08168 | -115.14019 | 2195 ft | 4 kts | 161° |
| 2026-05-08 07:01 | 36.08182 | -115.14030 | 2193 ft | 4 kts | 213° |
| 2026-05-08 07:01 | 36.08185 | -115.14045 | 2194 ft | 1 kts | 264° |
| 2026-05-08 07:02 | 36.08185 | -115.14044 | 2196 ft | 0 kts | 264° |
| 2026-05-08 07:03 | 36.08185 | -115.14051 | 2194 ft | 2 kts | 264° |
| 2026-05-08 07:04 | 36.08181 | -115.14095 | 2196 ft | 8 kts | 264° |
| 2026-05-08 07:04 | 36.08140 | -115.14152 | 2196 ft | 11 kts | 202° |
| 2026-05-08 07:04 | 36.08051 | -115.14161 | 2195 ft | 15 kts | 182° |
| 2026-05-08 07:04 | 36.07947 | -115.14119 | 2196 ft | 18 kts | 137° |
| 2026-05-08 07:05 | 36.07848 | -115.14003 | 2196 ft | 20 kts | 129° |
| 2026-05-08 07:05 | 36.07827 | -115.13837 | 2198 ft | 19 kts | 92° |
| 2026-05-08 07:05 | 36.07825 | -115.13671 | 2197 ft | 19 kts | 90° |
| 2026-05-08 07:05 | 36.07829 | -115.13506 | 2196 ft | 19 kts | 88° |
| 2026-05-08 07:06 | 36.07830 | -115.13344 | 2195 ft | 19 kts | 90° |
| 2026-05-08 07:06 | 36.07829 | -115.13181 | 2194 ft | 19 kts | 90° |
| 2026-05-08 07:06 | 36.07828 | -115.13016 | 2197 ft | 19 kts | 90° |
| 2026-05-08 07:06 | 36.07827 | -115.12854 | 2197 ft | 19 kts | 90° |
| 2026-05-08 07:07 | 36.07826 | -115.12688 | 2196 ft | 19 kts | 90° |
| 2026-05-08 07:07 | 36.07825 | -115.12574 | 2193 ft | 0 kts | 90° |
| 2026-05-08 07:07 | 36.07825 | -115.12567 | 2193 ft | 1 kts | 90° |
| 2026-05-08 07:07 | 36.07825 | -115.12549 | 2193 ft | 3 kts | 90° |
| 2026-05-08 07:08 | 36.07825 | -115.12521 | 2194 ft | 4 kts | 90° |
| 2026-05-08 07:08 | 36.07824 | -115.12484 | 2194 ft | 5 kts | 90° |
| 2026-05-08 07:08 | 36.07824 | -115.12438 | 2195 ft | 6 kts | 90° |
| 2026-05-08 07:08 | 36.07824 | -115.12383 | 2195 ft | 8 kts | 90° |
| 2026-05-08 07:09 | 36.07823 | -115.12278 | 2196 ft | 17 kts | 99° |
| 2026-05-08 07:09 | 36.07731 | -115.12138 | 2197 ft | 23 kts | 156° |
| 2026-05-08 07:09 | 36.07639 | -115.12191 | 2195 ft | 12 kts | 260° |
| 2026-05-08 07:09 | 36.07641 | -115.12350 | 2194 ft | 25 kts | 272° |
| 2026-05-08 07:10 | 36.07642 | -115.12665 | 2195 ft | 62 kts | 270° |
| 2026-05-08 07:10 | 36.07639 | -115.13465 | 2195 ft | 122 kts | 270° |
| 2026-05-08 07:10 | 36.07637 | -115.14254 | 2195 ft | 154 kts | 270° |
| 2026-05-08 07:10 | 36.07634 | -115.15727 | 2271 ft | 185 kts | 270° |
| 2026-05-08 07:11 | 36.07661 | -115.17366 | 2666 ft | 189 kts | 270° |
| 2026-05-08 07:11 | 36.07658 | -115.18922 | 3448 ft | 174 kts | 266° |
| 2026-05-08 07:11 | 36.07584 | -115.20390 | 4205 ft | 173 kts | 263° |
| 2026-05-08 07:11 | 36.07436 | -115.21961 | 4646 ft | 190 kts | 261° |
| 2026-05-08 07:12 | 36.07208 | -115.23647 | 5006 ft | 207 kts | 258° |
| 2026-05-08 07:12 | 36.06715 | -115.25395 | 5260 ft | 228 kts | 237° |
| 2026-05-08 07:12 | 36.05509 | -115.26756 | 5492 ft | 247 kts | 208° |
| 2026-05-08 07:12 | 36.03849 | -115.27574 | 5688 ft | 265 kts | 199° |
| 2026-05-08 07:13 | 36.02042 | -115.28281 | 5968 ft | 279 kts | 198° |
| 2026-05-08 07:13 | 36.00103 | -115.28723 | 6469 ft | 284 kts | 179° |
| 2026-05-08 07:13 | 35.98253 | -115.28184 | 6978 ft | 289 kts | 154° |
| 2026-05-08 07:13 | 35.96587 | -115.26676 | 7509 ft | 292 kts | 137° |
| 2026-05-08 07:14 | 35.95090 | -115.24950 | 8016 ft | 296 kts | 136° |
| 2026-05-08 07:14 | 35.93538 | -115.23150 | 8538 ft | 299 kts | 137° |
| 2026-05-08 07:14 | 35.92008 | -115.21352 | 9074 ft | 302 kts | 133° |
| 2026-05-08 07:14 | 35.90704 | -115.19313 | 9602 ft | 304 kts | 122° |
| 2026-05-08 07:15 | 35.89623 | -115.17061 | 9927 ft | 306 kts | 119° |
| 2026-05-08 07:15 | 35.88582 | -115.14753 | 10169 ft | 313 kts | 115° |
| 2026-05-08 07:15 | 35.87735 | -115.12206 | 10337 ft | 330 kts | 107° |
| 2026-05-08 07:15 | 35.87166 | -115.09437 | 10497 ft | 345 kts | 99° |
| 2026-05-08 07:16 | 35.86918 | -115.06457 | 10832 ft | 352 kts | 90° |
| 2026-05-08 07:16 | 35.87012 | -115.03436 | 11385 ft | 353 kts | 83° |
| 2026-05-08 07:16 | 35.87209 | -115.00412 | 11924 ft | 354 kts | 84° |
| 2026-05-08 07:16 | 35.87383 | -114.97377 | 12528 ft | 355 kts | 84° |
| 2026-05-08 07:17 | 35.87547 | -114.94329 | 13079 ft | 358 kts | 84° |
| 2026-05-08 07:17 | 35.87710 | -114.91256 | 13618 ft | 360 kts | 84° |
| 2026-05-08 07:17 | 35.87873 | -114.88161 | 14154 ft | 363 kts | 84° |
| 2026-05-08 07:17 | 35.88038 | -114.85043 | 14698 ft | 365 kts | 84° |
| 2026-05-08 07:18 | 35.88203 | -114.81910 | 15233 ft | 368 kts | 84° |
| 2026-05-08 07:18 | 35.88370 | -114.78751 | 15760 ft | 370 kts | 84° |
| 2026-05-08 07:18 | 35.88538 | -114.75574 | 16279 ft | 373 kts | 83° |
| 2026-05-08 07:18 | 35.88706 | -114.72372 | 16788 ft | 375 kts | 83° |
| 2026-05-08 07:19 | 35.88875 | -114.69152 | 17280 ft | 378 kts | 83° |
| 2026-05-08 07:19 | 35.89044 | -114.65901 | 17774 ft | 381 kts | 83° |
| 2026-05-08 07:19 | 35.89212 | -114.62637 | 18297 ft | 383 kts | 83° |
| 2026-05-08 07:19 | 35.89380 | -114.59347 | 18773 ft | 386 kts | 83° |
| 2026-05-08 07:20 | 35.89547 | -114.56038 | 19260 ft | 388 kts | 83° |
| 2026-05-08 07:20 | 35.89704 | -114.52707 | 19724 ft | 391 kts | 85° |
| 2026-05-08 07:20 | 35.89719 | -114.49332 | 20204 ft | 395 kts | 88° |
| 2026-05-08 07:20 | 35.89689 | -114.45936 | 20685 ft | 397 kts | 87° |
| 2026-05-08 07:21 | 35.89665 | -114.42520 | 21137 ft | 400 kts | 87° |
| 2026-05-08 07:21 | 35.89645 | -114.39083 | 21629 ft | 402 kts | 87° |
| 2026-05-08 07:21 | 35.89628 | -114.35618 | 22087 ft | 405 kts | 87° |
| 2026-05-08 07:21 | 35.89610 | -114.32139 | 22547 ft | 407 kts | 87° |
| 2026-05-08 07:22 | 35.89589 | -114.28631 | 23006 ft | 410 kts | 87° |
| 2026-05-08 07:22 | 35.89566 | -114.25104 | 23467 ft | 412 kts | 87° |
| 2026-05-08 07:22 | 35.89542 | -114.21554 | 23926 ft | 415 kts | 87° |
| 2026-05-08 07:22 | 35.89518 | -114.17989 | 24366 ft | 418 kts | 87° |
| 2026-05-08 07:23 | 35.89493 | -114.14419 | 24786 ft | 420 kts | 87° |
| 2026-05-08 07:23 | 35.89465 | -114.10789 | 25244 ft | 422 kts | 87° |
| 2026-05-08 07:23 | 35.89435 | -114.07156 | 25664 ft | 424 kts | 87° |
| 2026-05-08 07:23 | 35.89405 | -114.03507 | 26089 ft | 426 kts | 87° |
| 2026-05-08 07:24 | 35.89373 | -113.99842 | 26481 ft | 429 kts | 87° |
| 2026-05-08 07:24 | 35.89340 | -113.96146 | 26889 ft | 431 kts | 87° |
| 2026-05-08 07:24 | 35.89307 | -113.92433 | 27277 ft | 433 kts | 87° |
| 2026-05-08 07:24 | 35.89270 | -113.88754 | 27677 ft | 435 kts | 87° |
| 2026-05-08 07:25 | 35.89233 | -113.85018 | 28045 ft | 437 kts | 87° |
| 2026-05-08 07:25 | 35.89195 | -113.81260 | 28398 ft | 439 kts | 87° |
| 2026-05-08 07:25 | 35.89117 | -113.73704 | 29111 ft | 442 kts | 87° |
| 2026-05-08 07:26 | 35.89076 | -113.69905 | 29309 ft | 445 kts | 87° |
| 2026-05-08 07:26 | 35.89033 | -113.66086 | 29656 ft | 446 kts | 87° |
| 2026-05-08 07:26 | 35.88991 | -113.62254 | 30016 ft | 447 kts | 87° |
| 2026-05-08 07:26 | 35.88948 | -113.58425 | 30309 ft | 448 kts | 87° |
| 2026-05-08 07:27 | 35.88871 | -113.54571 | 30547 ft | 451 kts | 89° |
| 2026-05-08 07:27 | 35.88521 | -113.50702 | 30880 ft | 456 kts | 96° |
| 2026-05-08 07:27 | 35.87948 | -113.46845 | 31222 ft | 458 kts | 96° |
| 2026-05-08 07:27 | 35.87385 | -113.42968 | 31534 ft | 460 kts | 96° |
| 2026-05-08 07:28 | 35.86827 | -113.39078 | 31873 ft | 461 kts | 96° |
| 2026-05-08 07:28 | 35.86268 | -113.35174 | 32164 ft | 463 kts | 96° |
| 2026-05-08 07:28 | 35.85704 | -113.31253 | 32454 ft | 465 kts | 96° |
| 2026-05-08 07:28 | 35.85138 | -113.27326 | 32725 ft | 467 kts | 96° |
| 2026-05-08 07:29 | 35.84567 | -113.23374 | 32969 ft | 468 kts | 96° |
| 2026-05-08 07:29 | 35.83993 | -113.19428 | 33193 ft | 469 kts | 96° |
| 2026-05-08 07:29 | 35.83424 | -113.15526 | 33384 ft | 470 kts | 96° |
| 2026-05-08 07:29 | 35.82845 | -113.11555 | 33570 ft | 470 kts | 96° |
| 2026-05-08 07:30 | 35.82265 | -113.07584 | 33746 ft | 471 kts | 96° |
| 2026-05-08 07:30 | 35.81682 | -113.03614 | 33960 ft | 470 kts | 96° |
| 2026-05-08 07:30 | 35.81099 | -112.99652 | 34145 ft | 470 kts | 96° |
| 2026-05-08 07:30 | 35.80514 | -112.95687 | 34346 ft | 469 kts | 96° |
| 2026-05-08 07:31 | 35.79929 | -112.91734 | 34544 ft | 469 kts | 96° |
| 2026-05-08 07:31 | 35.79345 | -112.87780 | 34746 ft | 468 kts | 96° |
| 2026-05-08 07:31 | 35.78760 | -112.83834 | 34925 ft | 469 kts | 96° |
| 2026-05-08 07:31 | 35.78180 | -112.79934 | 35107 ft | 468 kts | 96° |
| 2026-05-08 07:32 | 35.77592 | -112.75991 | 35293 ft | 468 kts | 96° |
| 2026-05-08 07:32 | 35.77003 | -112.72047 | 35449 ft | 467 kts | 96° |
| 2026-05-08 07:32 | 35.76415 | -112.68119 | 35623 ft | 467 kts | 96° |
| 2026-05-08 07:32 | 35.75827 | -112.64187 | 35793 ft | 467 kts | 96° |
| 2026-05-08 07:33 | 35.75239 | -112.60257 | 35953 ft | 467 kts | 96° |
| 2026-05-08 07:33 | 35.74649 | -112.56324 | 36108 ft | 467 kts | 96° |
| 2026-05-08 07:33 | 35.74058 | -112.52396 | 36271 ft | 467 kts | 96° |
| 2026-05-08 07:33 | 35.73470 | -112.48475 | 36429 ft | 466 kts | 97° |
| 2026-05-08 07:34 | 35.72874 | -112.44544 | 36566 ft | 467 kts | 97° |
| 2026-05-08 07:34 | 35.72277 | -112.40623 | 36783 ft | 465 kts | 97° |
| 2026-05-08 07:34 | 35.71684 | -112.36726 | 37051 ft | 462 kts | 96° |
| 2026-05-08 07:34 | 35.71095 | -112.32852 | 37298 ft | 459 kts | 96° |
| 2026-05-08 07:35 | 35.70510 | -112.29005 | 37527 ft | 456 kts | 96° |
| 2026-05-08 07:35 | 35.69924 | -112.25161 | 37655 ft | 456 kts | 96° |
| 2026-05-08 07:35 | 35.69337 | -112.21327 | 37767 ft | 457 kts | 97° |
| 2026-05-08 07:35 | 35.68748 | -112.17482 | 37895 ft | 457 kts | 97° |
| 2026-05-08 07:36 | 35.68159 | -112.13643 | 38021 ft | 457 kts | 97° |
| 2026-05-08 07:36 | 35.67565 | -112.09801 | 38144 ft | 457 kts | 97° |
| 2026-05-08 07:36 | 35.66970 | -112.05962 | 38269 ft | 457 kts | 97° |
| 2026-05-08 07:36 | 35.66375 | -112.02125 | 38398 ft | 457 kts | 97° |
| 2026-05-08 07:37 | 35.65780 | -111.98288 | 38512 ft | 457 kts | 97° |
| 2026-05-08 07:37 | 35.65183 | -111.94445 | 38622 ft | 457 kts | 97° |
| 2026-05-08 07:37 | 35.64587 | -111.90607 | 38740 ft | 457 kts | 97° |
| 2026-05-08 07:37 | 35.63988 | -111.86770 | 38850 ft | 457 kts | 97° |
| 2026-05-08 07:38 | 35.63438 | -111.82974 | 38930 ft | 456 kts | 94° |
| 2026-05-08 07:38 | 35.63000 | -111.75233 | 39122 ft | 454 kts | 89° |
| 2026-05-08 07:39 | 35.62687 | -111.67463 | 39219 ft | 455 kts | 89° |
| 2026-05-08 07:39 | 35.62359 | -111.59686 | 39208 ft | 455 kts | 89° |
| 2026-05-08 07:40 | 35.62025 | -111.51907 | 39208 ft | 456 kts | 90° |
| 2026-05-08 07:40 | 35.61683 | -111.44122 | 39192 ft | 456 kts | 90° |
| 2026-05-08 07:41 | 35.61336 | -111.36340 | 39202 ft | 457 kts | 90° |
| 2026-05-08 07:41 | 35.60985 | -111.28530 | 39198 ft | 458 kts | 90° |
| 2026-05-08 07:42 | 35.60626 | -111.20708 | 39196 ft | 458 kts | 90° |
| 2026-05-08 07:42 | 35.60264 | -111.12881 | 39187 ft | 459 kts | 90° |
| 2026-05-08 07:43 | 35.59898 | -111.05049 | 39199 ft | 459 kts | 90° |
| 2026-05-08 07:43 | 35.59523 | -110.97203 | 39181 ft | 460 kts | 90° |
| 2026-05-08 07:44 | 35.59143 | -110.89362 | 39178 ft | 460 kts | 90° |
| 2026-05-08 07:44 | 35.58824 | -110.82852 | 39180 ft | 460 kts | 90° |
| 2026-05-08 07:45 | 35.58435 | -110.75008 | 39172 ft | 460 kts | 90° |
| 2026-05-08 07:45 | 35.58041 | -110.67155 | 39159 ft | 460 kts | 90° |
| 2026-05-08 07:46 | 35.57638 | -110.59262 | 39159 ft | 460 kts | 90° |
| 2026-05-08 07:46 | 35.57234 | -110.51409 | 39149 ft | 460 kts | 90° |
| 2026-05-08 07:47 | 35.56825 | -110.43575 | 39141 ft | 460 kts | 91° |
| 2026-05-08 07:47 | 35.56413 | -110.35738 | 39139 ft | 460 kts | 91° |
| 2026-05-08 07:48 | 35.55993 | -110.27907 | 39146 ft | 460 kts | 91° |
| 2026-05-08 07:48 | 35.55568 | -110.20058 | 39152 ft | 460 kts | 91° |
| 2026-05-08 07:49 | 35.55139 | -110.12223 | 39152 ft | 460 kts | 91° |
| 2026-05-08 07:49 | 35.54704 | -110.04394 | 39155 ft | 460 kts | 91° |
| 2026-05-08 07:50 | 35.54266 | -109.96566 | 39154 ft | 459 kts | 91° |
| 2026-05-08 07:50 | 35.53820 | -109.88737 | 39160 ft | 460 kts | 91° |
| 2026-05-08 07:51 | 35.53371 | -109.80891 | 39161 ft | 460 kts | 91° |
| 2026-05-08 07:51 | 35.52916 | -109.73047 | 39168 ft | 461 kts | 91° |
| 2026-05-08 07:52 | 35.52457 | -109.65200 | 39174 ft | 461 kts | 91° |
| 2026-05-08 07:52 | 35.51993 | -109.57349 | 39198 ft | 461 kts | 91° |
| 2026-05-08 07:53 | 35.51523 | -109.49531 | 39182 ft | 462 kts | 92° |
| 2026-05-08 07:53 | 35.51045 | -109.41665 | 39175 ft | 462 kts | 92° |
| 2026-05-08 07:54 | 35.50565 | -109.33795 | 39183 ft | 463 kts | 92° |
| 2026-05-08 07:54 | 35.50074 | -109.25900 | 39188 ft | 464 kts | 92° |
| 2026-05-08 07:55 | 35.49580 | -109.18001 | 39195 ft | 464 kts | 92° |
| 2026-05-08 07:55 | 35.49079 | -109.10093 | 39190 ft | 465 kts | 93° |
| 2026-05-08 07:56 | 35.48573 | -109.02174 | 39180 ft | 466 kts | 93° |
| 2026-05-08 07:56 | 35.48060 | -108.94229 | 39180 ft | 467 kts | 93° |
| 2026-05-08 07:57 | 35.47475 | -108.86338 | 39186 ft | 468 kts | 97° |
| 2026-05-08 07:57 | 35.46378 | -108.78448 | 39201 ft | 469 kts | 98° |
| 2026-05-08 07:58 | 35.45298 | -108.70551 | 39200 ft | 470 kts | 98° |
| 2026-05-08 07:58 | 35.44215 | -108.62629 | 39182 ft | 471 kts | 98° |
| 2026-05-08 07:59 | 35.43124 | -108.54698 | 39197 ft | 472 kts | 98° |
| 2026-05-08 07:59 | 35.42022 | -108.46756 | 39196 ft | 473 kts | 98° |
| 2026-05-08 08:00 | 35.40913 | -108.38807 | 39191 ft | 473 kts | 98° |
| 2026-05-08 08:00 | 35.39794 | -108.30857 | 39190 ft | 473 kts | 99° |
| 2026-05-08 08:01 | 35.38667 | -108.22916 | 39193 ft | 474 kts | 99° |
| 2026-05-08 08:01 | 35.37539 | -108.14951 | 39206 ft | 474 kts | 99° |
| 2026-05-08 08:02 | 35.36403 | -108.06989 | 39205 ft | 474 kts | 99° |
| 2026-05-08 08:02 | 35.35263 | -107.99032 | 39215 ft | 474 kts | 99° |
| 2026-05-08 08:03 | 35.34116 | -107.91075 | 39188 ft | 475 kts | 99° |
| 2026-05-08 08:03 | 35.32958 | -107.83085 | 39205 ft | 477 kts | 99° |
| 2026-05-08 08:04 | 35.31794 | -107.75083 | 39205 ft | 478 kts | 100° |
| 2026-05-08 08:04 | 35.30622 | -107.67057 | 39196 ft | 478 kts | 100° |
| 2026-05-08 08:05 | 35.29446 | -107.59029 | 39207 ft | 479 kts | 100° |
| 2026-05-08 08:05 | 35.28267 | -107.51050 | 39201 ft | 480 kts | 100° |
| 2026-05-08 08:06 | 35.27073 | -107.43002 | 39193 ft | 481 kts | 101° |
| 2026-05-08 08:06 | 35.25873 | -107.34950 | 39176 ft | 481 kts | 101° |
| 2026-05-08 08:07 | 35.24667 | -107.26897 | 39164 ft | 482 kts | 101° |
| 2026-05-08 08:07 | 35.23452 | -107.18826 | 39159 ft | 482 kts | 101° |
| 2026-05-08 08:08 | 35.22231 | -107.10750 | 39151 ft | 483 kts | 101° |
| 2026-05-08 08:08 | 35.21006 | -107.02665 | 39132 ft | 483 kts | 101° |
| 2026-05-08 08:09 | 35.19772 | -106.94583 | 39130 ft | 484 kts | 102° |
| 2026-05-08 08:09 | 35.18529 | -106.86483 | 39127 ft | 485 kts | 101° |
| 2026-05-08 08:10 | 35.17282 | -106.78379 | 39122 ft | 485 kts | 102° |
| 2026-05-08 08:10 | 35.16029 | -106.70277 | 39117 ft | 486 kts | 102° |
| 2026-05-08 08:11 | 35.14767 | -106.62154 | 39110 ft | 486 kts | 102° |
| 2026-05-08 08:11 | 35.13499 | -106.54028 | 39101 ft | 487 kts | 102° |
| 2026-05-08 08:12 | 35.12223 | -106.45890 | 39109 ft | 488 kts | 102° |
| 2026-05-08 08:12 | 35.10947 | -106.37794 | 39112 ft | 488 kts | 102° |
| 2026-05-08 08:13 | 35.09650 | -106.29597 | 39120 ft | 489 kts | 102° |
| 2026-05-08 08:13 | 35.08362 | -106.21499 | 39124 ft | 489 kts | 102° |
| 2026-05-08 08:14 | 35.07060 | -106.13351 | 39131 ft | 489 kts | 103° |
| 2026-05-08 08:14 | 35.05753 | -106.05200 | 39134 ft | 489 kts | 103° |
| 2026-05-08 08:15 | 35.04437 | -105.97046 | 39148 ft | 490 kts | 103° |
| 2026-05-08 08:15 | 35.03125 | -105.88913 | 39147 ft | 495 kts | 103° |
| 2026-05-08 08:16 | 35.01777 | -105.80599 | 39152 ft | 497 kts | 104° |
| 2026-05-08 08:16 | 35.00447 | -105.72442 | 39164 ft | 497 kts | 104° |
| 2026-05-08 08:17 | 34.99085 | -105.64145 | 39165 ft | 497 kts | 104° |
| 2026-05-08 08:17 | 34.97722 | -105.55873 | 39165 ft | 498 kts | 104° |
| 2026-05-08 08:18 | 34.96339 | -105.47523 | 39163 ft | 499 kts | 104° |
| 2026-05-08 08:18 | 34.94949 | -105.39164 | 39160 ft | 499 kts | 104° |
| 2026-05-08 08:19 | 34.93816 | -105.32375 | 39147 ft | 500 kts | 104° |
| 2026-05-08 08:19 | 34.92391 | -105.23881 | 39136 ft | 501 kts | 105° |
| 2026-05-08 08:20 | 34.90979 | -105.15499 | 39121 ft | 502 kts | 105° |
| 2026-05-08 08:20 | 34.89597 | -105.07331 | 39101 ft | 503 kts | 105° |
| 2026-05-08 08:21 | 34.88143 | -104.98763 | 39082 ft | 503 kts | 105° |
| 2026-05-08 08:21 | 34.86718 | -104.90411 | 39064 ft | 504 kts | 105° |
| 2026-05-08 08:22 | 34.85277 | -104.81995 | 39050 ft | 504 kts | 105° |
| 2026-05-08 08:22 | 34.83837 | -104.73634 | 39041 ft | 505 kts | 106° |
| 2026-05-08 08:23 | 34.82388 | -104.65272 | 39036 ft | 505 kts | 106° |
| 2026-05-08 08:23 | 34.80938 | -104.56899 | 39036 ft | 506 kts | 106° |
| 2026-05-08 08:24 | 34.79476 | -104.48519 | 39034 ft | 506 kts | 107° |
| 2026-05-08 08:24 | 34.78006 | -104.40133 | 39031 ft | 507 kts | 107° |
| 2026-05-08 08:25 | 34.76530 | -104.31738 | 39030 ft | 508 kts | 107° |
| 2026-05-08 08:25 | 34.75047 | -104.23337 | 39021 ft | 509 kts | 107° |
| 2026-05-08 08:26 | 34.73564 | -104.14977 | 39016 ft | 509 kts | 107° |
| 2026-05-08 08:26 | 34.72062 | -104.06548 | 39030 ft | 510 kts | 107° |
| 2026-05-08 08:27 | 34.70556 | -103.98118 | 39031 ft | 510 kts | 108° |
| 2026-05-08 08:27 | 34.69042 | -103.89669 | 39006 ft | 512 kts | 108° |
| 2026-05-08 08:28 | 34.67514 | -103.81193 | 39007 ft | 513 kts | 108° |
| 2026-05-08 08:28 | 34.65976 | -103.72712 | 39019 ft | 514 kts | 108° |
| 2026-05-08 08:29 | 34.64433 | -103.64223 | 39022 ft | 515 kts | 108° |
| 2026-05-08 08:29 | 34.62889 | -103.55778 | 39036 ft | 516 kts | 108° |
| 2026-05-08 08:30 | 34.61329 | -103.47266 | 39032 ft | 517 kts | 109° |
| 2026-05-08 08:30 | 34.58974 | -103.34487 | 39032 ft | 518 kts | 109° |
| 2026-05-08 08:31 | 34.57397 | -103.25955 | 39043 ft | 518 kts | 109° |
| 2026-05-08 08:31 | 34.55805 | -103.17427 | 39045 ft | 519 kts | 109° |
| 2026-05-08 08:32 | 34.54211 | -103.08890 | 39051 ft | 519 kts | 109° |
| 2026-05-08 08:32 | 34.52609 | -103.00337 | 39064 ft | 520 kts | 109° |
| 2026-05-08 08:33 | 34.51005 | -102.91784 | 39057 ft | 521 kts | 109° |
| 2026-05-08 08:33 | 34.49187 | -102.83309 | 39050 ft | 516 kts | 116° |
| 2026-05-08 08:34 | 34.46564 | -102.75284 | 39043 ft | 511 kts | 121° |
| 2026-05-08 08:34 | 34.43833 | -102.67302 | 39046 ft | 514 kts | 120° |
| 2026-05-08 08:35 | 34.41110 | -102.59289 | 39042 ft | 515 kts | 121° |
| 2026-05-08 08:35 | 34.38366 | -102.51264 | 39049 ft | 516 kts | 121° |
| 2026-05-08 08:36 | 34.35602 | -102.43194 | 39047 ft | 516 kts | 121° |
| 2026-05-08 08:36 | 34.32839 | -102.35164 | 39038 ft | 517 kts | 122° |
| 2026-05-08 08:37 | 34.30068 | -102.27124 | 39038 ft | 518 kts | 122° |
| 2026-05-08 08:37 | 34.27285 | -102.19075 | 39035 ft | 519 kts | 122° |
| 2026-05-08 08:38 | 34.24496 | -102.11028 | 39031 ft | 520 kts | 122° |
| 2026-05-08 08:38 | 34.21695 | -102.02970 | 39032 ft | 520 kts | 122° |
| 2026-05-08 08:39 | 34.18887 | -101.94908 | 39031 ft | 520 kts | 122° |
| 2026-05-08 08:39 | 34.16074 | -101.86859 | 39032 ft | 521 kts | 122° |
| 2026-05-08 08:40 | 34.13276 | -101.78863 | 39035 ft | 521 kts | 122° |
| 2026-05-08 08:40 | 34.10450 | -101.70809 | 39035 ft | 521 kts | 123° |
| 2026-05-08 08:41 | 34.07620 | -101.62770 | 39037 ft | 520 kts | 123° |
| 2026-05-08 08:41 | 34.04769 | -101.54688 | 39029 ft | 521 kts | 122° |
| 2026-05-08 08:42 | 34.01928 | -101.46652 | 39032 ft | 521 kts | 122° |
| 2026-05-08 08:42 | 33.99081 | -101.38620 | 39029 ft | 521 kts | 123° |
| 2026-05-08 08:43 | 33.96226 | -101.30589 | 39011 ft | 521 kts | 123° |
| 2026-05-08 08:43 | 33.93363 | -101.22559 | 39036 ft | 522 kts | 123° |
| 2026-05-08 08:44 | 33.90513 | -101.14582 | 39033 ft | 522 kts | 123° |
| 2026-05-08 08:44 | 33.87632 | -101.06535 | 39026 ft | 523 kts | 123° |
| 2026-05-08 08:45 | 33.84743 | -100.98490 | 39006 ft | 524 kts | 123° |
| 2026-05-08 08:45 | 33.81852 | -100.90441 | 39017 ft | 524 kts | 123° |
| 2026-05-08 08:46 | 33.78948 | -100.82392 | 39033 ft | 525 kts | 123° |
| 2026-05-08 08:46 | 33.76031 | -100.74335 | 39040 ft | 526 kts | 123° |
| 2026-05-08 08:47 | 33.73106 | -100.66273 | 39033 ft | 527 kts | 124° |
| 2026-05-08 08:47 | 33.70173 | -100.58205 | 39026 ft | 527 kts | 124° |
| 2026-05-08 08:48 | 33.67728 | -100.51496 | 39031 ft | 527 kts | 124° |
| 2026-05-08 08:48 | 33.64740 | -100.43311 | 39029 ft | 528 kts | 124° |
| 2026-05-08 08:49 | 33.61787 | -100.35235 | 39030 ft | 528 kts | 124° |
| 2026-05-08 08:49 | 33.58838 | -100.27197 | 39031 ft | 529 kts | 124° |
| 2026-05-08 08:50 | 33.55834 | -100.19030 | 39010 ft | 529 kts | 124° |
| 2026-05-08 08:50 | 33.52859 | -100.10967 | 39036 ft | 529 kts | 124° |
| 2026-05-08 08:51 | 33.49879 | -100.02900 | 39034 ft | 529 kts | 124° |
| 2026-05-08 08:51 | 33.46895 | -99.94848 | 39007 ft | 529 kts | 124° |
| 2026-05-08 08:52 | 33.43901 | -99.86786 | 39032 ft | 530 kts | 124° |
| 2026-05-08 08:52 | 33.40901 | -99.78729 | 39040 ft | 530 kts | 124° |
| 2026-05-08 08:53 | 33.37889 | -99.70665 | 39041 ft | 530 kts | 124° |
| 2026-05-08 08:53 | 33.34875 | -99.62607 | 39005 ft | 531 kts | 124° |
| 2026-05-08 08:54 | 33.31854 | -99.54549 | 39028 ft | 531 kts | 124° |
| 2026-05-08 08:54 | 33.28817 | -99.46475 | 39035 ft | 531 kts | 124° |
| 2026-05-08 08:55 | 33.25775 | -99.38415 | 39035 ft | 532 kts | 124° |
| 2026-05-08 08:55 | 33.22728 | -99.30340 | 39030 ft | 533 kts | 124° |
| 2026-05-08 08:56 | 33.19670 | -99.22265 | 39034 ft | 534 kts | 124° |
| 2026-05-08 08:56 | 33.16603 | -99.14194 | 39039 ft | 534 kts | 124° |
| 2026-05-08 08:57 | 33.13533 | -99.06114 | 39044 ft | 534 kts | 124° |
| 2026-05-08 08:57 | 33.10431 | -98.97986 | 39042 ft | 534 kts | 124° |
| 2026-05-08 08:58 | 33.07341 | -98.89908 | 39032 ft | 536 kts | 124° |
| 2026-05-08 08:58 | 33.04250 | -98.81826 | 39025 ft | 536 kts | 124° |
| 2026-05-08 08:59 | 33.01151 | -98.73732 | 39009 ft | 537 kts | 124° |
| 2026-05-08 08:59 | 32.98056 | -98.65634 | 39027 ft | 537 kts | 124° |
| 2026-05-08 09:00 | 32.94955 | -98.57531 | 39010 ft | 538 kts | 124° |
| 2026-05-08 09:00 | 32.91846 | -98.49430 | 39026 ft | 538 kts | 124° |
| 2026-05-08 09:01 | 32.88711 | -98.41274 | 39022 ft | 539 kts | 124° |
| 2026-05-08 09:01 | 32.85608 | -98.33231 | 39035 ft | 539 kts | 124° |
| 2026-05-08 09:02 | 32.82458 | -98.25076 | 39033 ft | 539 kts | 125° |
| 2026-05-08 09:02 | 32.79317 | -98.16977 | 39026 ft | 540 kts | 124° |
| 2026-05-08 09:03 | 32.76170 | -98.08869 | 39020 ft | 541 kts | 125° |
| 2026-05-08 09:03 | 32.73011 | -98.00765 | 39018 ft | 541 kts | 125° |
| 2026-05-08 09:04 | 32.69769 | -97.92711 | 39019 ft | 540 kts | 126° |
| 2026-05-08 09:04 | 32.66693 | -97.85303 | 39029 ft | 541 kts | 126° |
| 2026-05-08 09:05 | 32.63365 | -97.77279 | 39010 ft | 542 kts | 126° |
| 2026-05-08 09:05 | 32.60054 | -97.69277 | 39018 ft | 543 kts | 126° |
| 2026-05-08 09:06 | 32.56706 | -97.61175 | 39007 ft | 543 kts | 126° |
| 2026-05-08 09:06 | 32.53425 | -97.53272 | 39004 ft | 543 kts | 126° |
| 2026-05-08 09:07 | 32.50001 | -97.45045 | 39010 ft | 543 kts | 126° |
| 2026-05-08 09:07 | 32.46669 | -97.37047 | 39020 ft | 544 kts | 126° |
| 2026-05-08 09:08 | 32.43315 | -97.29024 | 39007 ft | 544 kts | 126° |
| 2026-05-08 09:08 | 32.39952 | -97.20994 | 39030 ft | 544 kts | 126° |
| 2026-05-08 09:09 | 32.36582 | -97.12972 | 39040 ft | 544 kts | 126° |
| 2026-05-08 09:09 | 32.33210 | -97.04961 | 39028 ft | 545 kts | 126° |
| 2026-05-08 09:10 | 32.29835 | -96.96938 | 39036 ft | 545 kts | 126° |
| 2026-05-08 09:10 | 32.26193 | -96.89072 | 39030 ft | 539 kts | 130° |
| 2026-05-08 09:11 | 32.22429 | -96.81459 | 39043 ft | 541 kts | 130° |
| 2026-05-08 09:11 | 32.18653 | -96.73782 | 39045 ft | 541 kts | 130° |
| 2026-05-08 09:12 | 32.14859 | -96.66103 | 39040 ft | 542 kts | 130° |
| 2026-05-08 09:12 | 32.11677 | -96.59667 | 39048 ft | 542 kts | 130° |
| 2026-05-08 09:13 | 32.07872 | -96.51981 | 39050 ft | 543 kts | 130° |
| 2026-05-08 09:13 | 32.04046 | -96.44289 | 39057 ft | 544 kts | 130° |
| 2026-05-08 09:14 | 32.00222 | -96.36593 | 39058 ft | 544 kts | 130° |
| 2026-05-08 09:14 | 31.96389 | -96.28913 | 39051 ft | 544 kts | 130° |
| 2026-05-08 09:15 | 31.92549 | -96.21232 | 39046 ft | 545 kts | 130° |
| 2026-05-08 09:15 | 31.88702 | -96.13546 | 39047 ft | 545 kts | 130° |
| 2026-05-08 09:16 | 31.84845 | -96.05864 | 39051 ft | 545 kts | 130° |
| 2026-05-08 09:16 | 31.80984 | -95.98191 | 39042 ft | 545 kts | 130° |
| 2026-05-08 09:17 | 31.77117 | -95.90520 | 39041 ft | 545 kts | 130° |
| 2026-05-08 09:17 | 31.73249 | -95.82859 | 39043 ft | 545 kts | 130° |